sensor_id;sensor_type;location;lat;lon;timestamp;P1;durP1;ratioP1;P2;durP2;ratioP2
38262;SDS011;24054;50.128;19.730;2023-04-22T00:00:23;12.30;;;8.43;;
38262;SDS011;24054;50.128;19.730;2023-04-22T00:02:53;11.98;;;8.25;;
38262;SDS011;24054;50.128;19.730;2023-04-22T00:05:21;12.00;;;8.63;;
38262;SDS011;24054;50.128;19.730;2023-04-22T00:07:49;11.98;;;7.95;;
38262;SDS011;24054;50.128;19.730;2023-04-22T00:12:44;10.93;;;8.05;;
38262;SDS011;24054;50.128;19.730;2023-04-22T00:15:12;11.00;;;8.45;;
38262;SDS011;24054;50.128;19.730;2023-04-22T00:17:39;10.50;;;8.43;;
38262;SDS011;24054;50.128;19.730;2023-04-22T00:20:07;11.38;;;8.52;;
38262;SDS011;24054;50.128;19.730;2023-04-22T00:22:36;11.90;;;8.48;;
38262;SDS011;24054;50.128;19.730;2023-04-22T00:25:05;10.82;;;8.25;;
38262;SDS011;24054;50.128;19.730;2023-04-22T00:27:32;11.68;;;8.75;;
38262;SDS011;24054;50.128;19.730;2023-04-22T00:29:59;10.45;;;8.10;;
38262;SDS011;24054;50.128;19.730;2023-04-22T00:32:26;12.23;;;8.02;;
38262;SDS011;24054;50.128;19.730;2023-04-22T00:34:55;11.95;;;8.85;;
38262;SDS011;24054;50.128;19.730;2023-04-22T00:37:22;9.13;;;7.72;;
38262;SDS011;24054;50.128;19.730;2023-04-22T00:39:49;12.23;;;9.35;;
38262;SDS011;24054;50.128;19.730;2023-04-22T00:42:18;9.95;;;8.15;;
38262;SDS011;24054;50.128;19.730;2023-04-22T00:44:46;10.38;;;8.48;;
38262;SDS011;24054;50.128;19.730;2023-04-22T00:47:13;11.00;;;8.13;;
38262;SDS011;24054;50.128;19.730;2023-04-22T00:49:42;11.18;;;8.30;;
38262;SDS011;24054;50.128;19.730;2023-04-22T00:52:09;12.57;;;8.45;;
38262;SDS011;24054;50.128;19.730;2023-04-22T00:54:37;11.63;;;8.68;;
38262;SDS011;24054;50.128;19.730;2023-04-22T00:57:03;11.95;;;8.00;;
38262;SDS011;24054;50.128;19.730;2023-04-22T00:59:32;11.85;;;8.65;;
38262;SDS011;24054;50.128;19.730;2023-04-22T01:01:59;10.82;;;8.15;;
38262;SDS011;24054;50.128;19.730;2023-04-22T01:04:26;9.95;;;7.65;;
38262;SDS011;24054;50.128;19.730;2023-04-22T01:06:55;10.80;;;8.25;;
38262;SDS011;24054;50.128;19.730;2023-04-22T01:09:22;9.68;;;7.63;;
38262;SDS011;24054;50.128;19.730;2023-04-22T01:11:50;10.50;;;8.60;;
38262;SDS011;24054;50.128;19.730;2023-04-22T01:14:17;10.52;;;7.80;;
38262;SDS011;24054;50.128;19.730;2023-04-22T01:16:45;11.98;;;8.25;;
38262;SDS011;24054;50.128;19.730;2023-04-22T01:19:12;10.45;;;7.82;;
38262;SDS011;24054;50.128;19.730;2023-04-22T01:21:40;9.65;;;7.78;;
38262;SDS011;24054;50.128;19.730;2023-04-22T01:24:10;9.95;;;8.15;;
38262;SDS011;24054;50.128;19.730;2023-04-22T01:26:37;10.32;;;8.23;;
38262;SDS011;24054;50.128;19.730;2023-04-22T01:29:04;10.55;;;8.05;;
38262;SDS011;24054;50.128;19.730;2023-04-22T01:31:32;9.52;;;7.50;;
38262;SDS011;24054;50.128;19.730;2023-04-22T01:33:59;9.07;;;7.50;;
38262;SDS011;24054;50.128;19.730;2023-04-22T01:36:26;10.75;;;8.25;;
38262;SDS011;24054;50.128;19.730;2023-04-22T01:38:53;10.75;;;8.07;;
38262;SDS011;24054;50.128;19.730;2023-04-22T01:41:22;10.88;;;8.15;;
38262;SDS011;24054;50.128;19.730;2023-04-22T01:43:50;10.52;;;7.78;;
38262;SDS011;24054;50.128;19.730;2023-04-22T01:46:18;11.05;;;7.80;;
38262;SDS011;24054;50.128;19.730;2023-04-22T01:48:45;9.30;;;7.68;;
38262;SDS011;24054;50.128;19.730;2023-04-22T01:51:15;9.60;;;7.30;;
38262;SDS011;24054;50.128;19.730;2023-04-22T01:56:11;10.85;;;7.43;;
38262;SDS011;24054;50.128;19.730;2023-04-22T01:58:39;9.50;;;7.78;;
38262;SDS011;24054;50.128;19.730;2023-04-22T02:01:07;10.00;;;7.82;;
38262;SDS011;24054;50.128;19.730;2023-04-22T02:03:35;10.15;;;7.72;;
38262;SDS011;24054;50.128;19.730;2023-04-22T02:06:02;9.52;;;8.02;;
38262;SDS011;24054;50.128;19.730;2023-04-22T02:08:30;9.98;;;7.72;;
38262;SDS011;24054;50.128;19.730;2023-04-22T02:10:57;10.32;;;8.07;;
38262;SDS011;24054;50.128;19.730;2023-04-22T02:13:25;8.90;;;7.07;;
38262;SDS011;24054;50.128;19.730;2023-04-22T02:15:53;10.30;;;7.65;;
38262;SDS011;24054;50.128;19.730;2023-04-22T02:18:20;11.45;;;8.00;;
38262;SDS011;24054;50.128;19.730;2023-04-22T02:20:47;9.68;;;7.50;;
38262;SDS011;24054;50.128;19.730;2023-04-22T02:23:14;9.73;;;7.45;;
38262;SDS011;24054;50.128;19.730;2023-04-22T02:25:46;9.13;;;7.40;;
38262;SDS011;24054;50.128;19.730;2023-04-22T02:28:14;9.20;;;7.13;;
38262;SDS011;24054;50.128;19.730;2023-04-22T02:30:41;10.82;;;7.93;;
38262;SDS011;24054;50.128;19.730;2023-04-22T02:33:09;9.27;;;7.65;;
38262;SDS011;24054;50.128;19.730;2023-04-22T02:35:36;8.98;;;7.60;;
38262;SDS011;24054;50.128;19.730;2023-04-22T02:38:03;9.73;;;7.15;;
38262;SDS011;24054;50.128;19.730;2023-04-22T02:40:30;9.35;;;7.40;;
38262;SDS011;24054;50.128;19.730;2023-04-22T02:42:57;11.20;;;7.28;;
38262;SDS011;24054;50.128;19.730;2023-04-22T02:45:24;9.50;;;7.15;;
38262;SDS011;24054;50.128;19.730;2023-04-22T02:47:51;9.50;;;7.45;;
38262;SDS011;24054;50.128;19.730;2023-04-22T02:50:19;8.57;;;6.68;;
38262;SDS011;24054;50.128;19.730;2023-04-22T02:52:46;9.50;;;7.25;;
38262;SDS011;24054;50.128;19.730;2023-04-22T02:55:13;8.80;;;6.65;;
38262;SDS011;24054;50.128;19.730;2023-04-22T02:57:40;9.63;;;6.90;;
38262;SDS011;24054;50.128;19.730;2023-04-22T03:00:07;9.45;;;7.18;;
38262;SDS011;24054;50.128;19.730;2023-04-22T03:02:35;9.80;;;7.35;;
38262;SDS011;24054;50.128;19.730;2023-04-22T03:05:02;9.20;;;7.32;;
38262;SDS011;24054;50.128;19.730;2023-04-22T03:07:33;9.18;;;7.25;;
38262;SDS011;24054;50.128;19.730;2023-04-22T03:10:00;10.45;;;7.57;;
38262;SDS011;24054;50.128;19.730;2023-04-22T03:12:27;8.57;;;6.93;;
38262;SDS011;24054;50.128;19.730;2023-04-22T03:14:54;9.00;;;7.25;;
38262;SDS011;24054;50.128;19.730;2023-04-22T03:17:21;8.73;;;6.85;;
38262;SDS011;24054;50.128;19.730;2023-04-22T03:22:16;8.43;;;6.82;;
38262;SDS011;24054;50.128;19.730;2023-04-22T03:24:45;8.80;;;6.82;;
38262;SDS011;24054;50.128;19.730;2023-04-22T03:27:11;9.57;;;7.43;;
38262;SDS011;24054;50.128;19.730;2023-04-22T03:29:38;8.85;;;7.10;;
38262;SDS011;24054;50.128;19.730;2023-04-22T03:32:05;7.82;;;6.50;;
38262;SDS011;24054;50.128;19.730;2023-04-22T03:34:32;8.40;;;7.07;;
38262;SDS011;24054;50.128;19.730;2023-04-22T03:36:59;11.90;;;7.80;;
38262;SDS011;24054;50.128;19.730;2023-04-22T03:39:26;8.00;;;6.53;;
38262;SDS011;24054;50.128;19.730;2023-04-22T03:41:55;8.07;;;6.40;;
38262;SDS011;24054;50.128;19.730;2023-04-22T03:44:21;8.82;;;7.07;;
38262;SDS011;24054;50.128;19.730;2023-04-22T03:46:48;10.30;;;7.22;;
38262;SDS011;24054;50.128;19.730;2023-04-22T03:49:15;8.30;;;6.72;;
38262;SDS011;24054;50.128;19.730;2023-04-22T03:51:42;8.02;;;6.38;;
38262;SDS011;24054;50.128;19.730;2023-04-22T03:54:09;9.45;;;6.95;;
38262;SDS011;24054;50.128;19.730;2023-04-22T03:56:36;7.90;;;6.28;;
38262;SDS011;24054;50.128;19.730;2023-04-22T03:59:04;8.15;;;6.55;;
38262;SDS011;24054;50.128;19.730;2023-04-22T04:01:31;8.50;;;6.63;;
38262;SDS011;24054;50.128;19.730;2023-04-22T04:03:58;8.20;;;6.63;;
38262;SDS011;24054;50.128;19.730;2023-04-22T04:06:25;9.00;;;6.72;;
38262;SDS011;24054;50.128;19.730;2023-04-22T04:08:52;7.40;;;6.30;;
38262;SDS011;24054;50.128;19.730;2023-04-22T04:11:19;7.47;;;6.68;;
38262;SDS011;24054;50.128;19.730;2023-04-22T04:13:46;8.05;;;6.00;;
38262;SDS011;24054;50.128;19.730;2023-04-22T04:16:17;8.30;;;6.57;;
38262;SDS011;24054;50.128;19.730;2023-04-22T04:18:44;8.80;;;6.60;;
38262;SDS011;24054;50.128;19.730;2023-04-22T04:21:14;8.95;;;6.40;;
38262;SDS011;24054;50.128;19.730;2023-04-22T04:23:41;7.95;;;6.50;;
38262;SDS011;24054;50.128;19.730;2023-04-22T04:26:08;7.25;;;5.95;;
38262;SDS011;24054;50.128;19.730;2023-04-22T04:28:35;7.63;;;6.40;;
38262;SDS011;24054;50.128;19.730;2023-04-22T04:31:03;8.82;;;6.25;;
38262;SDS011;24054;50.128;19.730;2023-04-22T04:33:32;6.93;;;5.53;;
38262;SDS011;24054;50.128;19.730;2023-04-22T04:36:03;7.90;;;6.28;;
38262;SDS011;24054;50.128;19.730;2023-04-22T04:38:32;8.07;;;6.22;;
38262;SDS011;24054;50.128;19.730;2023-04-22T04:41:03;7.28;;;6.03;;
38262;SDS011;24054;50.128;19.730;2023-04-22T04:43:33;8.25;;;5.93;;
38262;SDS011;24054;50.128;19.730;2023-04-22T04:46:00;6.97;;;6.22;;
38262;SDS011;24054;50.128;19.730;2023-04-22T04:48:27;6.80;;;5.72;;
38262;SDS011;24054;50.128;19.730;2023-04-22T04:50:56;11.00;;;7.18;;
38262;SDS011;24054;50.128;19.730;2023-04-22T04:53:23;9.20;;;6.43;;
38262;SDS011;24054;50.128;19.730;2023-04-22T04:55:50;9.13;;;6.13;;
38262;SDS011;24054;50.128;19.730;2023-04-22T04:58:16;9.85;;;7.30;;
38262;SDS011;24054;50.128;19.730;2023-04-22T05:00:46;8.90;;;6.75;;
38262;SDS011;24054;50.128;19.730;2023-04-22T05:03:13;7.70;;;6.65;;
38262;SDS011;24054;50.128;19.730;2023-04-22T05:05:40;8.85;;;6.00;;
38262;SDS011;24054;50.128;19.730;2023-04-22T05:08:09;7.85;;;6.40;;
38262;SDS011;24054;50.128;19.730;2023-04-22T05:10:36;8.75;;;6.95;;
38262;SDS011;24054;50.128;19.730;2023-04-22T05:13:03;9.20;;;7.10;;
38262;SDS011;24054;50.128;19.730;2023-04-22T05:15:32;7.95;;;6.47;;
38262;SDS011;24054;50.128;19.730;2023-04-22T05:18:00;8.23;;;6.32;;
38262;SDS011;24054;50.128;19.730;2023-04-22T05:20:27;7.47;;;5.88;;
38262;SDS011;24054;50.128;19.730;2023-04-22T05:22:53;7.07;;;5.82;;
38262;SDS011;24054;50.128;19.730;2023-04-22T05:25:22;7.18;;;5.68;;
38262;SDS011;24054;50.128;19.730;2023-04-22T05:27:51;7.95;;;5.90;;
38262;SDS011;24054;50.128;19.730;2023-04-22T05:30:18;6.85;;;5.60;;
38262;SDS011;24054;50.128;19.730;2023-04-22T05:32:45;6.80;;;5.88;;
38262;SDS011;24054;50.128;19.730;2023-04-22T05:35:12;6.95;;;5.70;;
38262;SDS011;24054;50.128;19.730;2023-04-22T05:37:39;7.07;;;5.25;;
38262;SDS011;24054;50.128;19.730;2023-04-22T05:40:06;7.57;;;5.65;;
38262;SDS011;24054;50.128;19.730;2023-04-22T05:42:35;7.47;;;5.67;;
38262;SDS011;24054;50.128;19.730;2023-04-22T05:45:02;6.93;;;5.72;;
38262;SDS011;24054;50.128;19.730;2023-04-22T05:49:58;6.72;;;5.40;;
38262;SDS011;24054;50.128;19.730;2023-04-22T05:52:25;7.72;;;5.63;;
38262;SDS011;24054;50.128;19.730;2023-04-22T05:54:52;9.30;;;6.25;;
38262;SDS011;24054;50.128;19.730;2023-04-22T05:57:19;8.10;;;5.57;;
38262;SDS011;24054;50.128;19.730;2023-04-22T05:59:47;8.00;;;6.10;;
38262;SDS011;24054;50.128;19.730;2023-04-22T06:02:14;7.85;;;5.78;;
38262;SDS011;24054;50.128;19.730;2023-04-22T06:04:41;7.93;;;5.80;;
38262;SDS011;24054;50.128;19.730;2023-04-22T06:07:09;7.82;;;5.50;;
38262;SDS011;24054;50.128;19.730;2023-04-22T06:09:36;8.00;;;5.22;;
38262;SDS011;24054;50.128;19.730;2023-04-22T06:12:03;7.05;;;5.07;;
38262;SDS011;24054;50.128;19.730;2023-04-22T06:14:35;6.07;;;4.88;;
38262;SDS011;24054;50.128;19.730;2023-04-22T06:17:04;6.07;;;4.97;;
38262;SDS011;24054;50.128;19.730;2023-04-22T06:19:31;6.15;;;4.88;;
38262;SDS011;24054;50.128;19.730;2023-04-22T06:21:58;5.63;;;4.65;;
38262;SDS011;24054;50.128;19.730;2023-04-22T06:24:25;6.35;;;4.70;;
38262;SDS011;24054;50.128;19.730;2023-04-22T06:26:52;8.35;;;5.55;;
38262;SDS011;24054;50.128;19.730;2023-04-22T06:29:19;7.72;;;5.40;;
38262;SDS011;24054;50.128;19.730;2023-04-22T06:31:46;10.75;;;6.07;;
38262;SDS011;24054;50.128;19.730;2023-04-22T06:34:14;12.80;;;6.25;;
38262;SDS011;24054;50.128;19.730;2023-04-22T06:36:42;8.10;;;5.43;;
38262;SDS011;24054;50.128;19.730;2023-04-22T06:39:09;10.23;;;5.30;;
38262;SDS011;24054;50.128;19.730;2023-04-22T06:41:36;6.43;;;5.07;;
38262;SDS011;24054;50.128;19.730;2023-04-22T06:44:03;7.80;;;5.90;;
38262;SDS011;24054;50.128;19.730;2023-04-22T06:46:30;6.78;;;5.07;;
38262;SDS011;24054;50.128;19.730;2023-04-22T06:48:57;8.98;;;5.82;;
38262;SDS011;24054;50.128;19.730;2023-04-22T06:51:26;10.48;;;5.55;;
38262;SDS011;24054;50.128;19.730;2023-04-22T06:53:53;9.77;;;5.82;;
38262;SDS011;24054;50.128;19.730;2023-04-22T06:56:20;10.40;;;5.85;;
38262;SDS011;24054;50.128;19.730;2023-04-22T06:58:47;11.18;;;5.75;;
38262;SDS011;24054;50.128;19.730;2023-04-22T07:01:14;10.55;;;6.20;;
38262;SDS011;24054;50.128;19.730;2023-04-22T07:03:41;9.27;;;5.72;;
38262;SDS011;24054;50.128;19.730;2023-04-22T07:06:08;7.20;;;5.35;;
38262;SDS011;24054;50.128;19.730;2023-04-22T07:08:37;10.75;;;5.30;;
38262;SDS011;24054;50.128;19.730;2023-04-22T07:11:04;8.52;;;5.03;;
38262;SDS011;24054;50.128;19.730;2023-04-22T07:13:31;8.68;;;5.55;;
38262;SDS011;24054;50.128;19.730;2023-04-22T07:15:59;7.45;;;5.10;;
38262;SDS011;24054;50.128;19.730;2023-04-22T07:18:26;6.78;;;5.35;;
38262;SDS011;24054;50.128;19.730;2023-04-22T07:20:54;9.77;;;5.25;;
38262;SDS011;24054;50.128;19.730;2023-04-22T07:23:21;7.22;;;5.03;;
38262;SDS011;24054;50.128;19.730;2023-04-22T07:25:49;7.53;;;5.38;;
38262;SDS011;24054;50.128;19.730;2023-04-22T07:28:16;8.43;;;5.53;;
38262;SDS011;24054;50.128;19.730;2023-04-22T07:30:43;6.88;;;5.50;;
38262;SDS011;24054;50.128;19.730;2023-04-22T07:33:11;8.25;;;5.85;;
38262;SDS011;24054;50.128;19.730;2023-04-22T07:35:38;6.93;;;5.47;;
38262;SDS011;24054;50.128;19.730;2023-04-22T07:38:05;7.57;;;5.10;;
38262;SDS011;24054;50.128;19.730;2023-04-22T07:40:32;7.45;;;5.70;;
38262;SDS011;24054;50.128;19.730;2023-04-22T07:43:01;7.18;;;5.82;;
38262;SDS011;24054;50.128;19.730;2023-04-22T07:45:29;6.63;;;5.70;;
38262;SDS011;24054;50.128;19.730;2023-04-22T07:47:56;8.13;;;5.90;;
38262;SDS011;24054;50.128;19.730;2023-04-22T07:50:23;8.77;;;6.13;;
38262;SDS011;24054;50.128;19.730;2023-04-22T07:52:50;8.75;;;6.70;;
38262;SDS011;24054;50.128;19.730;2023-04-22T07:55:17;10.05;;;6.93;;
38262;SDS011;24054;50.128;19.730;2023-04-22T07:57:44;10.98;;;7.57;;
38262;SDS011;24054;50.128;19.730;2023-04-22T08:00:13;9.15;;;7.10;;
38262;SDS011;24054;50.128;19.730;2023-04-22T08:02:41;9.60;;;7.78;;
38262;SDS011;24054;50.128;19.730;2023-04-22T08:05:08;9.57;;;7.32;;
38262;SDS011;24054;50.128;19.730;2023-04-22T08:07:36;11.35;;;7.60;;
38262;SDS011;24054;50.128;19.730;2023-04-22T08:10:03;10.30;;;7.35;;
38262;SDS011;24054;50.128;19.730;2023-04-22T08:12:31;9.13;;;7.45;;
38262;SDS011;24054;50.128;19.730;2023-04-22T08:14:58;9.57;;;7.13;;
38262;SDS011;24054;50.128;19.730;2023-04-22T08:17:27;10.52;;;7.22;;
38262;SDS011;24054;50.128;19.730;2023-04-22T08:19:54;10.93;;;7.72;;
38262;SDS011;24054;50.128;19.730;2023-04-22T08:22:21;8.77;;;7.13;;
38262;SDS011;24054;50.128;19.730;2023-04-22T08:24:49;9.45;;;6.95;;
38262;SDS011;24054;50.128;19.730;2023-04-22T08:27:16;11.02;;;7.53;;
38262;SDS011;24054;50.128;19.730;2023-04-22T08:29:47;9.32;;;7.38;;
38262;SDS011;24054;50.128;19.730;2023-04-22T08:32:14;8.52;;;6.57;;
38262;SDS011;24054;50.128;19.730;2023-04-22T08:34:45;7.47;;;6.55;;
38262;SDS011;24054;50.128;19.730;2023-04-22T08:37:12;6.82;;;5.68;;
38262;SDS011;24054;50.128;19.730;2023-04-22T08:39:39;6.25;;;5.60;;
38262;SDS011;24054;50.128;19.730;2023-04-22T08:42:06;6.15;;;4.95;;
38262;SDS011;24054;50.128;19.730;2023-04-22T08:44:34;6.28;;;5.03;;
38262;SDS011;24054;50.128;19.730;2023-04-22T08:47:02;5.95;;;4.80;;
38262;SDS011;24054;50.128;19.730;2023-04-22T08:49:32;6.82;;;4.53;;
38262;SDS011;24054;50.128;19.730;2023-04-22T08:52:02;5.97;;;4.45;;
38262;SDS011;24054;50.128;19.730;2023-04-22T08:54:29;4.93;;;3.95;;
38262;SDS011;24054;50.128;19.730;2023-04-22T08:56:57;4.78;;;4.28;;
38262;SDS011;24054;50.128;19.730;2023-04-22T08:59:26;4.47;;;4.07;;
38262;SDS011;24054;50.128;19.730;2023-04-22T09:01:54;5.43;;;4.28;;
38262;SDS011;24054;50.128;19.730;2023-04-22T09:04:22;4.93;;;3.80;;
38262;SDS011;24054;50.128;19.730;2023-04-22T09:06:49;4.75;;;4.35;;
38262;SDS011;24054;50.128;19.730;2023-04-22T09:09:18;4.50;;;4.03;;
38262;SDS011;24054;50.128;19.730;2023-04-22T09:11:45;4.78;;;3.65;;
38262;SDS011;24054;50.128;19.730;2023-04-22T09:14:12;5.53;;;4.03;;
38262;SDS011;24054;50.128;19.730;2023-04-22T09:16:45;4.97;;;3.95;;
38262;SDS011;24054;50.128;19.730;2023-04-22T09:19:12;6.18;;;4.40;;
38262;SDS011;24054;50.128;19.730;2023-04-22T09:21:43;5.47;;;4.13;;
38262;SDS011;24054;50.128;19.730;2023-04-22T09:24:13;7.85;;;4.50;;
38262;SDS011;24054;50.128;19.730;2023-04-22T09:26:42;11.25;;;5.38;;
38262;SDS011;24054;50.128;19.730;2023-04-22T09:29:12;7.38;;;5.05;;
38262;SDS011;24054;50.128;19.730;2023-04-22T09:31:40;11.50;;;5.45;;
38262;SDS011;24054;50.128;19.730;2023-04-22T09:34:07;10.13;;;5.20;;
38262;SDS011;24054;50.128;19.730;2023-04-22T09:36:34;11.88;;;4.93;;
38262;SDS011;24054;50.128;19.730;2023-04-22T09:39:02;6.75;;;4.70;;
38262;SDS011;24054;50.128;19.730;2023-04-22T09:41:31;7.05;;;4.85;;
38262;SDS011;24054;50.128;19.730;2023-04-22T09:44:02;6.50;;;4.75;;
38262;SDS011;24054;50.128;19.730;2023-04-22T09:46:32;5.80;;;4.43;;
38262;SDS011;24054;50.128;19.730;2023-04-22T09:49:00;5.87;;;4.40;;
38262;SDS011;24054;50.128;19.730;2023-04-22T09:51:27;7.05;;;4.32;;
38262;SDS011;24054;50.128;19.730;2023-04-22T09:53:56;6.93;;;4.75;;
38262;SDS011;24054;50.128;19.730;2023-04-22T09:56:40;6.85;;;4.13;;
38262;SDS011;24054;50.128;19.730;2023-04-22T09:59:10;4.55;;;4.15;;
38262;SDS011;24054;50.128;19.730;2023-04-22T10:01:37;6.13;;;4.00;;
38262;SDS011;24054;50.128;19.730;2023-04-22T10:04:05;7.00;;;4.38;;
38262;SDS011;24054;50.128;19.730;2023-04-22T10:09:00;6.15;;;4.40;;
38262;SDS011;24054;50.128;19.730;2023-04-22T10:11:29;5.15;;;3.95;;
38262;SDS011;24054;50.128;19.730;2023-04-22T10:13:56;5.45;;;4.75;;
38262;SDS011;24054;50.128;19.730;2023-04-22T10:16:26;3.72;;;3.40;;
38262;SDS011;24054;50.128;19.730;2023-04-22T10:18:57;7.07;;;4.20;;
38262;SDS011;24054;50.128;19.730;2023-04-22T10:21:26;4.38;;;3.90;;
38262;SDS011;24054;50.128;19.730;2023-04-22T10:26:39;3.92;;;3.53;;
38262;SDS011;24054;50.128;19.730;2023-04-22T10:29:08;4.15;;;3.40;;
38262;SDS011;24054;50.128;19.730;2023-04-22T10:31:42;5.15;;;3.90;;
38262;SDS011;24054;50.128;19.730;2023-04-22T10:34:10;6.55;;;4.72;;
38262;SDS011;24054;50.128;19.730;2023-04-22T10:36:54;12.68;;;7.03;;
38262;SDS011;24054;50.128;19.730;2023-04-22T10:39:26;14.88;;;8.32;;
38262;SDS011;24054;50.128;19.730;2023-04-22T10:42:04;15.10;;;8.23;;
38262;SDS011;24054;50.128;19.730;2023-04-22T10:44:44;12.85;;;7.72;;
38262;SDS011;24054;50.128;19.730;2023-04-22T10:47:25;15.30;;;8.88;;
38262;SDS011;24054;50.128;19.730;2023-04-22T10:52:48;19.27;;;10.75;;
38262;SDS011;24054;50.128;19.730;2023-04-22T10:55:17;19.65;;;9.90;;
38262;SDS011;24054;50.128;19.730;2023-04-22T10:57:44;18.10;;;9.10;;
38262;SDS011;24054;50.128;19.730;2023-04-22T11:03:08;17.10;;;9.80;;
38262;SDS011;24054;50.128;19.730;2023-04-22T11:05:39;12.88;;;7.45;;
38262;SDS011;24054;50.128;19.730;2023-04-22T11:08:08;13.82;;;8.52;;
38262;SDS011;24054;50.128;19.730;2023-04-22T11:10:39;17.65;;;8.13;;
38262;SDS011;24054;50.128;19.730;2023-04-22T11:13:08;14.23;;;7.68;;
38262;SDS011;24054;50.128;19.730;2023-04-22T11:15:37;12.93;;;7.78;;
38262;SDS011;24054;50.128;19.730;2023-04-22T11:18:12;12.00;;;7.03;;
38262;SDS011;24054;50.128;19.730;2023-04-22T11:20:42;11.10;;;7.43;;
38262;SDS011;24054;50.128;19.730;2023-04-22T11:23:09;13.57;;;7.68;;
38262;SDS011;24054;50.128;19.730;2023-04-22T11:25:36;14.52;;;7.50;;
38262;SDS011;24054;50.128;19.730;2023-04-22T11:28:04;12.75;;;7.15;;
38262;SDS011;24054;50.128;19.730;2023-04-22T11:30:31;12.90;;;7.22;;
38262;SDS011;24054;50.128;19.730;2023-04-22T11:32:59;11.30;;;7.13;;
38262;SDS011;24054;50.128;19.730;2023-04-22T11:35:28;12.27;;;6.40;;
38262;SDS011;24054;50.128;19.730;2023-04-22T11:37:57;13.05;;;7.22;;
38262;SDS011;24054;50.128;19.730;2023-04-22T11:40:25;13.38;;;6.57;;
38262;SDS011;24054;50.128;19.730;2023-04-22T11:42:53;13.43;;;6.78;;
38262;SDS011;24054;50.128;19.730;2023-04-22T11:45:21;12.40;;;6.13;;
38262;SDS011;24054;50.128;19.730;2023-04-22T11:47:50;10.13;;;6.18;;
38262;SDS011;24054;50.128;19.730;2023-04-22T11:50:20;14.52;;;6.78;;
38262;SDS011;24054;50.128;19.730;2023-04-22T11:52:51;12.23;;;7.07;;
38262;SDS011;24054;50.128;19.730;2023-04-22T11:55:21;12.13;;;6.50;;
38262;SDS011;24054;50.128;19.730;2023-04-22T11:57:52;9.85;;;6.50;;
38262;SDS011;24054;50.128;19.730;2023-04-22T12:00:20;11.93;;;6.30;;
38262;SDS011;24054;50.128;19.730;2023-04-22T12:02:59;9.23;;;5.18;;
38262;SDS011;24054;50.128;19.730;2023-04-22T12:05:38;14.68;;;5.50;;
38262;SDS011;24054;50.128;19.730;2023-04-22T12:08:08;10.77;;;6.13;;
38262;SDS011;24054;50.128;19.730;2023-04-22T12:10:40;9.07;;;5.38;;
38262;SDS011;24054;50.128;19.730;2023-04-22T12:13:08;9.18;;;5.35;;
38262;SDS011;24054;50.128;19.730;2023-04-22T12:15:40;9.13;;;4.50;;
38262;SDS011;24054;50.128;19.730;2023-04-22T12:18:07;11.60;;;5.25;;
38262;SDS011;24054;50.128;19.730;2023-04-22T12:20:36;6.63;;;4.45;;
38262;SDS011;24054;50.128;19.730;2023-04-22T12:23:05;9.65;;;4.65;;
38262;SDS011;24054;50.128;19.730;2023-04-22T12:25:39;9.35;;;4.70;;
38262;SDS011;24054;50.128;19.730;2023-04-22T12:28:07;7.75;;;4.60;;
38262;SDS011;24054;50.128;19.730;2023-04-22T12:30:34;9.68;;;4.30;;
38262;SDS011;24054;50.128;19.730;2023-04-22T12:33:01;8.52;;;4.72;;
38262;SDS011;24054;50.128;19.730;2023-04-22T12:35:28;6.93;;;4.72;;
38262;SDS011;24054;50.128;19.730;2023-04-22T12:37:55;8.05;;;4.32;;
38262;SDS011;24054;50.128;19.730;2023-04-22T12:40:25;6.97;;;4.60;;
38262;SDS011;24054;50.128;19.730;2023-04-22T12:42:52;6.63;;;4.57;;
38262;SDS011;24054;50.128;19.730;2023-04-22T12:45:19;7.30;;;4.05;;
38262;SDS011;24054;50.128;19.730;2023-04-22T12:47:48;7.40;;;4.00;;
38262;SDS011;24054;50.128;19.730;2023-04-22T12:50:17;7.13;;;3.85;;
38262;SDS011;24054;50.128;19.730;2023-04-22T12:52:45;8.43;;;4.18;;
38262;SDS011;24054;50.128;19.730;2023-04-22T12:55:12;6.85;;;4.07;;
38262;SDS011;24054;50.128;19.730;2023-04-22T12:57:40;7.13;;;3.90;;
38262;SDS011;24054;50.128;19.730;2023-04-22T13:02:38;5.07;;;3.78;;
38262;SDS011;24054;50.128;19.730;2023-04-22T13:07:34;6.95;;;3.30;;
38262;SDS011;24054;50.128;19.730;2023-04-22T13:10:01;6.53;;;4.28;;
38262;SDS011;24054;50.128;19.730;2023-04-22T13:12:29;4.27;;;3.60;;
38262;SDS011;24054;50.128;19.730;2023-04-22T13:14:57;6.65;;;4.28;;
38262;SDS011;24054;50.128;19.730;2023-04-22T13:17:25;6.78;;;3.97;;
38262;SDS011;24054;50.128;19.730;2023-04-22T13:19:52;4.78;;;3.40;;
38262;SDS011;24054;50.128;19.730;2023-04-22T13:22:19;5.13;;;3.40;;
38262;SDS011;24054;50.128;19.730;2023-04-22T13:24:47;5.15;;;3.60;;
38262;SDS011;24054;50.128;19.730;2023-04-22T13:27:14;5.70;;;3.65;;
38262;SDS011;24054;50.128;19.730;2023-04-22T13:29:41;8.93;;;4.60;;
38262;SDS011;24054;50.128;19.730;2023-04-22T13:32:10;5.50;;;3.78;;
38262;SDS011;24054;50.128;19.730;2023-04-22T13:34:37;6.47;;;3.83;;
38262;SDS011;24054;50.128;19.730;2023-04-22T13:37:04;7.88;;;4.60;;
38262;SDS011;24054;50.128;19.730;2023-04-22T13:39:32;7.77;;;3.73;;
38262;SDS011;24054;50.128;19.730;2023-04-22T13:41:59;5.65;;;3.58;;
38262;SDS011;24054;50.128;19.730;2023-04-22T13:44:27;5.90;;;3.53;;
38262;SDS011;24054;50.128;19.730;2023-04-22T13:46:54;4.13;;;3.47;;
38262;SDS011;24054;50.128;19.730;2023-04-22T13:49:23;5.95;;;3.72;;
38262;SDS011;24054;50.128;19.730;2023-04-22T13:51:52;4.50;;;3.90;;
38262;SDS011;24054;50.128;19.730;2023-04-22T13:54:19;5.03;;;3.30;;
38262;SDS011;24054;50.128;19.730;2023-04-22T13:56:46;4.88;;;3.42;;
38262;SDS011;24054;50.128;19.730;2023-04-22T13:59:16;5.65;;;3.95;;
38262;SDS011;24054;50.128;19.730;2023-04-22T14:01:43;4.47;;;3.40;;
38262;SDS011;24054;50.128;19.730;2023-04-22T14:04:10;5.03;;;3.72;;
38262;SDS011;24054;50.128;19.730;2023-04-22T14:06:38;8.10;;;4.20;;
38262;SDS011;24054;50.128;19.730;2023-04-22T14:09:06;4.30;;;3.58;;
38262;SDS011;24054;50.128;19.730;2023-04-22T14:11:33;4.93;;;3.63;;
38262;SDS011;24054;50.128;19.730;2023-04-22T14:14:00;3.40;;;2.97;;
38262;SDS011;24054;50.128;19.730;2023-04-22T14:16:27;4.57;;;3.50;;
38262;SDS011;24054;50.128;19.730;2023-04-22T14:18:54;5.55;;;3.50;;
38262;SDS011;24054;50.128;19.730;2023-04-22T14:21:22;4.87;;;3.60;;
38262;SDS011;24054;50.128;19.730;2023-04-22T14:23:51;5.72;;;3.60;;
38262;SDS011;24054;50.128;19.730;2023-04-22T14:26:18;4.68;;;3.63;;
38262;SDS011;24054;50.128;19.730;2023-04-22T14:28:45;3.97;;;3.30;;
38262;SDS011;24054;50.128;19.730;2023-04-22T14:31:12;4.85;;;3.13;;
38262;SDS011;24054;50.128;19.730;2023-04-22T14:33:40;7.50;;;3.55;;
38262;SDS011;24054;50.128;19.730;2023-04-22T14:36:07;3.70;;;3.40;;
38262;SDS011;24054;50.128;19.730;2023-04-22T14:38:34;4.78;;;3.50;;
38262;SDS011;24054;50.128;19.730;2023-04-22T14:41:03;4.72;;;3.70;;
38262;SDS011;24054;50.128;19.730;2023-04-22T14:43:31;4.93;;;3.42;;
38262;SDS011;24054;50.128;19.730;2023-04-22T14:46:00;6.13;;;3.70;;
38262;SDS011;24054;50.128;19.730;2023-04-22T14:48:27;4.30;;;3.50;;
38262;SDS011;24054;50.128;19.730;2023-04-22T14:50:56;4.72;;;3.55;;
38262;SDS011;24054;50.128;19.730;2023-04-22T14:53:24;4.45;;;3.22;;
38262;SDS011;24054;50.128;19.730;2023-04-22T14:55:51;4.90;;;3.90;;
38262;SDS011;24054;50.128;19.730;2023-04-22T14:58:22;5.22;;;3.47;;
38262;SDS011;24054;50.128;19.730;2023-04-22T15:00:51;5.97;;;3.83;;